Time;durP1;ratioP1;P1;durP2;ratioP2;P2;SDS_P1;SDS_P2;PMS_P1;PMS_P2;Temp;Humidity;BMP_temperature;BMP_pressure;BME280_temperature;BME280_humidity;BME280_pressure;Samples;Min_cycle;Max_cycle;Signal;HPM_P1;HPM_P2
2022/02/26 00:02:04;;;;;;;;;;;6.40;99.90;;;;;;4940026;29;19911;-96
2022/02/26 00:04:30;;;;;;;;;;;6.30;99.90;;;;;;4939926;29;20049;-92
2022/02/26 00:06:55;;;;;;;;;;;6.40;99.90;;;;;;4956316;29;19922;-90
2022/02/26 00:09:21;;;;;;;;;;;6.30;99.90;;;;;;4939532;29;20450;-96
2022/02/26 00:11:46;;;;;;;;;;;6.30;99.90;;;;;;4940453;29;20265;-91
2022/02/26 00:14:12;;;;;;;;;;;6.30;99.90;;;;;;4939854;29;19911;-91
2022/02/26 00:16:38;;;;;;;;;;;6.30;99.90;;;;;;4956001;29;20490;-91
2022/02/26 00:19:03;;;;;;;;;;;6.30;99.90;;;;;;4956882;29;19911;-91
2022/02/26 00:21:29;;;;;;;;;;;6.30;99.90;;;;;;4956326;29;19945;-95
2022/02/26 00:23:54;;;;;;;;;;;6.30;99.90;;;;;;4939444;29;19910;-95
2022/02/26 00:26:22;;;;;;;;;;;6.30;99.90;;;;;;4939376;29;19910;-91
2022/02/26 00:28:48;;;;;;;;;;;6.30;99.90;;;;;;4939036;29;19918;-91
2022/02/26 00:31:15;;;;;;;;;;;6.20;99.90;;;;;;4963452;28;19915;-90
2022/02/26 00:33:41;;;;;;;;;;;6.20;99.90;;;;;;4955822;29;19917;-94
2022/02/26 00:36:07;;;;;;;;;;;6.20;99.90;;;;;;4938735;29;19911;-88
2022/02/26 00:38:32;;;;;;;;;;;6.20;99.90;;;;;;4955519;29;20395;-95
2022/02/26 00:40:58;;;;;;;;;;;6.20;99.90;;;;;;4952005;29;19918;-89
2022/02/26 00:43:24;;;;;;;;;;;6.20;99.90;;;;;;4955135;29;19910;-89
2022/02/26 00:45:50;;;;;;;;;;;6.10;99.90;;;;;;4959730;29;19910;-90
2022/02/26 00:48:15;;;;;;;;;;;6.10;99.90;;;;;;4955027;29;20376;-95
2022/02/26 00:50:41;;;;;;;;;;;6.10;99.90;;;;;;4937467;29;19961;-95
2022/02/26 00:53:06;;;;;;;;;;;6.00;99.90;;;;;;4937969;29;19914;-90
2022/02/26 00:55:32;;;;;;;;;;;6.00;99.90;;;;;;4937979;29;20297;-96
2022/02/26 00:58:00;;;;;;;;;;;6.00;99.90;;;;;;4937243;29;19911;-89
2022/02/26 01:00:25;;;;;;;;;;;5.90;99.90;;;;;;4937413;29;19915;-90
2022/02/26 01:02:51;;;;;;;;;;;5.90;99.90;;;;;;4954727;29;19911;-95
2022/02/26 01:05:16;;;;;;;;;;;5.90;99.90;;;;;;4955196;29;20394;-89
2022/02/26 01:07:42;;;;;;;;;;;5.80;99.90;;;;;;4937654;29;19938;-95
2022/02/26 01:10:08;;;;;;;;;;;5.80;99.90;;;;;;4954590;29;19926;-89
2022/02/26 01:12:34;;;;;;;;;;;5.80;99.90;;;;;;4937056;29;19917;-95
2022/02/26 01:14:59;;;;;;;;;;;5.70;99.90;;;;;;4954392;29;19910;-94
2022/02/26 01:17:25;;;;;;;;;;;5.70;99.90;;;;;;4954100;29;20488;-89
2022/02/26 01:19:51;;;;;;;;;;;5.70;99.90;;;;;;4954820;29;19911;-96
2022/02/26 01:22:16;;;;;;;;;;;5.70;99.90;;;;;;4937008;29;19917;-90
2022/02/26 01:24:42;;;;;;;;;;;5.70;99.90;;;;;;4954394;28;19917;-95
2022/02/26 01:27:08;;;;;;;;;;;5.70;99.90;;;;;;4940724;29;19910;-90
2022/02/26 01:29:35;;;;;;;;;;;5.70;99.90;;;;;;4958195;29;19965;-91
2022/02/26 01:32:01;;;;;;;;;;;5.70;99.90;;;;;;4957706;29;20012;-92
2022/02/26 01:34:26;;;;;;;;;;;5.70;99.90;;;;;;4959799;29;20418;-88
2022/02/26 01:36:52;;;;;;;;;;;5.70;99.90;;;;;;4958193;29;19957;-89
2022/02/26 01:39:23;;;;;;;;;;;5.70;99.90;;;;;;4957666;29;19918;-89
2022/02/26 01:41:48;;;;;;;;;;;5.70;99.90;;;;;;4940867;29;19911;-90
2022/02/26 01:44:14;;;;;;;;;;;5.70;99.90;;;;;;4959533;29;19911;-89
2022/02/26 01:46:40;;;;;;;;;;;5.70;99.90;;;;;;4957795;29;19938;-88
2022/02/26 01:49:06;;;;;;;;;;;5.70;99.90;;;;;;4954661;29;19926;-89
2022/02/26 01:51:31;;;;;;;;;;;5.70;99.90;;;;;;4960212;29;20372;-88
2022/02/26 01:53:57;;;;;;;;;;;5.70;99.90;;;;;;4964147;29;19915;-89
2022/02/26 01:56:23;;;;;;;;;;;5.70;99.90;;;;;;4948058;29;19981;-96
2022/02/26 01:58:48;;;;;;;;;;;5.70;99.90;;;;;;4966278;29;19934;-89
2022/02/26 02:01:14;;;;;;;;;;;5.70;99.90;;;;;;4965994;29;19911;-89
2022/02/26 02:03:39;;;;;;;;;;;5.60;99.90;;;;;;4947908;29;19915;-88
2022/02/26 02:06:05;;;;;;;;;;;5.60;99.90;;;;;;4953229;29;19969;-91
2022/02/26 02:08:31;;;;;;;;;;;5.60;99.90;;;;;;4961869;29;19958;-91
2022/02/26 02:10:56;;;;;;;;;;;5.60;99.90;;;;;;4962067;28;19957;-90
2022/02/26 02:13:23;;;;;;;;;;;5.60;99.90;;;;;;4960552;29;20008;-90
2022/02/26 02:15:48;;;;;;;;;;;5.50;99.90;;;;;;4962164;28;19924;-89
2022/02/26 02:18:15;;;;;;;;;;;5.50;99.90;;;;;;4958345;29;19915;-89
2022/02/26 02:20:41;;;;;;;;;;;5.50;99.90;;;;;;4960850;29;19902;-88
2022/02/26 02:23:07;;;;;;;;;;;5.50;99.90;;;;;;4963991;28;19906;-89
2022/02/26 02:25:34;;;;;;;;;;;5.50;99.90;;;;;;4963058;29;19914;-91
2022/02/26 02:28:00;;;;;;;;;;;5.40;99.90;;;;;;4960767;29;19961;-91
2022/02/26 02:30:26;;;;;;;;;;;5.50;99.90;;;;;;4960759;29;19950;-89
2022/02/26 02:32:52;;;;;;;;;;;5.40;99.90;;;;;;4959055;29;19911;-92
2022/02/26 02:35:27;;;;;;;;;;;5.50;99.90;;;;;;4976172;28;20014;-89
2022/02/26 02:37:54;;;;;;;;;;;5.40;99.90;;;;;;4977370;28;19914;-90
2022/02/26 02:40:20;;;;;;;;;;;5.40;99.90;;;;;;4977127;28;19966;-89
2022/02/26 02:42:46;;;;;;;;;;;5.40;99.90;;;;;;4956012;29;20454;-89
2022/02/26 02:45:11;;;;;;;;;;;5.30;99.90;;;;;;4957167;29;20036;-89
2022/02/26 02:47:37;;;;;;;;;;;5.30;99.90;;;;;;4958048;29;20021;-87
2022/02/26 02:50:03;;;;;;;;;;;5.30;99.90;;;;;;4957193;29;19946;-94
2022/02/26 02:52:28;;;;;;;;;;;5.30;99.90;;;;;;4956999;29;19915;-89
2022/02/26 02:54:54;;;;;;;;;;;5.20;99.90;;;;;;4940028;29;19910;-95
2022/02/26 02:57:19;;;;;;;;;;;5.20;99.90;;;;;;4955787;29;19960;-89
2022/02/26 02:59:45;;;;;;;;;;;5.20;99.90;;;;;;4957653;29;19915;-89
2022/02/26 03:02:10;;;;;;;;;;;5.20;99.90;;;;;;4940554;29;19911;-89
2022/02/26 03:04:36;;;;;;;;;;;5.20;99.90;;;;;;4956310;29;20003;-89
2022/02/26 03:07:02;;;;;;;;;;;5.20;99.90;;;;;;4939747;29;19993;-94
2022/02/26 03:09:28;;;;;;;;;;;5.20;99.90;;;;;;4938645;29;19922;-89
2022/02/26 03:11:53;;;;;;;;;;;5.10;99.90;;;;;;4939094;29;19910;-94
2022/02/26 03:14:19;;;;;;;;;;;5.10;99.90;;;;;;4938839;29;20386;-89
2022/02/26 03:16:44;;;;;;;;;;;5.10;99.90;;;;;;4938883;29;19917;-89
2022/02/26 03:19:10;;;;;;;;;;;5.10;99.90;;;;;;4956307;29;19938;-94
2022/02/26 03:21:36;;;;;;;;;;;5.00;99.90;;;;;;4956923;29;19914;-92
2022/02/26 03:24:01;;;;;;;;;;;5.00;99.90;;;;;;4939638;29;19938;-88
2022/02/26 03:26:27;;;;;;;;;;;5.00;99.90;;;;;;4956368;29;19910;-89
2022/02/26 03:28:53;;;;;;;;;;;5.00;99.90;;;;;;4938077;29;20431;-90
2022/02/26 03:31:18;;;;;;;;;;;5.00;99.90;;;;;;4939390;29;19946;-94
2022/02/26 03:33:44;;;;;;;;;;;4.90;99.90;;;;;;4956511;29;19919;-88
2022/02/26 03:36:10;;;;;;;;;;;4.90;99.90;;;;;;4955691;29;19910;-91
2022/02/26 03:38:38;;;;;;;;;;;4.90;99.90;;;;;;4939179;29;19914;-92
2022/02/26 03:41:03;;;;;;;;;;;4.90;99.90;;;;;;4939653;29;19961;-91
2022/02/26 03:43:29;;;;;;;;;;;4.90;99.90;;;;;;4939490;29;19911;-96
2022/02/26 03:45:55;;;;;;;;;;;4.90;99.90;;;;;;4957529;29;19910;-91
2022/02/26 03:48:21;;;;;;;;;;;5.00;99.90;;;;;;4938508;29;19923;-91
2022/02/26 03:50:46;;;;;;;;;;;5.00;99.90;;;;;;4939189;29;19934;-91
2022/02/26 03:53:12;;;;;;;;;;;5.00;99.90;;;;;;4956499;29;19910;-91
2022/02/26 03:55:37;;;;;;;;;;;5.00;99.90;;;;;;4939122;29;19910;-91
2022/02/26 03:58:03;;;;;;;;;;;5.00;99.90;;;;;;4956121;29;19911;-95
2022/02/26 04:00:29;;;;;;;;;;;5.10;99.90;;;;;;4940265;29;19915;-90
2022/02/26 04:02:54;;;;;;;;;;;5.10;99.90;;;;;;4955986;29;20005;-91
2022/02/26 04:05:20;;;;;;;;;;;5.10;99.90;;;;;;4957683;29;19918;-91
2022/02/26 04:07:46;;;;;;;;;;;5.10;99.90;;;;;;4938156;29;20360;-91
2022/02/26 04:10:11;;;;;;;;;;;5.20;99.90;;;;;;4938884;29;20319;-91
2022/02/26 04:12:37;;;;;;;;;;;5.10;99.90;;;;;;4937630;29;19921;-94
2022/02/26 04:15:03;;;;;;;;;;;5.20;99.90;;;;;;4938980;29;20069;-95
2022/02/26 04:17:28;;;;;;;;;;;5.20;99.90;;;;;;4938492;29;20446;-92
2022/02/26 04:19:54;;;;;;;;;;;5.20;99.90;;;;;;4955846;29;19914;-91
2022/02/26 04:22:20;;;;;;;;;;;5.20;99.90;;;;;;4938594;29;20376;-95
2022/02/26 04:24:45;;;;;;;;;;;5.10;99.90;;;;;;4939041;29;19915;-91
2022/02/26 04:27:11;;;;;;;;;;;5.10;99.90;;;;;;4955612;29;20264;-91
2022/02/26 04:29:37;;;;;;;;;;;5.10;99.90;;;;;;4938129;29;20439;-91
2022/02/26 04:32:02;;;;;;;;;;;5.10;99.90;;;;;;4938117;29;19949;-92
2022/02/26 04:34:28;;;;;;;;;;;5.10;99.90;;;;;;4938674;29;20162;-91
2022/02/26 04:36:53;;;;;;;;;;;5.10;99.90;;;;;;4956319;29;20438;-94
2022/02/26 04:39:19;;;;;;;;;;;5.00;99.90;;;;;;4938893;29;19915;-91
2022/02/26 04:41:45;;;;;;;;;;;5.00;99.90;;;;;;4938412;29;19915;-91
2022/02/26 04:44:10;;;;;;;;;;;5.00;99.90;;;;;;4938569;29;19961;-94
2022/02/26 04:46:36;;;;;;;;;;;5.00;99.90;;;;;;4955964;29;19914;-93
2022/02/26 04:49:01;;;;;;;;;;;5.00;99.90;;;;;;4957424;29;19925;-89
2022/02/26 04:51:27;;;;;;;;;;;5.00;99.90;;;;;;4937565;29;20489;-96
2022/02/26 04:53:52;;;;;;;;;;;5.00;99.90;;;;;;4938810;29;19911;-90
2022/02/26 04:56:18;;;;;;;;;;;5.00;99.90;;;;;;4954719;29;19965;-91
2022/02/26 04:58:44;;;;;;;;;;;5.00;99.90;;;;;;4937878;28;19911;-90
2022/02/26 05:01:09;;;;;;;;;;;5.00;99.90;;;;;;4958663;29;19958;-91
2022/02/26 05:03:35;;;;;;;;;;;5.00;99.90;;;;;;4941903;29;20563;-91
2022/02/26 05:06:00;;;;;;;;;;;5.00;99.90;;;;;;4942362;29;19934;-90
2022/02/26 05:08:26;;;;;;;;;;;4.90;99.90;;;;;;4961833;29;20413;-96
2022/02/26 05:10:53;;;;;;;;;;;4.80;99.90;;;;;;4959492;29;19929;-92
2022/02/26 05:13:18;;;;;;;;;;;4.80;99.90;;;;;;4959430;29;20265;-92
2022/02/26 05:15:44;;;;;;;;;;;4.90;99.90;;;;;;4959111;29;19942;-91
2022/02/26 05:18:09;;;;;;;;;;;4.80;99.90;;;;;;4941559;29;19997;-88
2022/02/26 05:20:35;;;;;;;;;;;4.80;99.90;;;;;;4959545;29;19911;-96
2022/02/26 05:23:00;;;;;;;;;;;4.80;99.90;;;;;;4959102;29;19910;-91
2022/02/26 05:25:26;;;;;;;;;;;4.90;99.90;;;;;;4959226;29;20437;-90
2022/02/26 05:27:52;;;;;;;;;;;4.80;99.90;;;;;;4941801;29;19911;-91
2022/02/26 05:30:17;;;;;;;;;;;4.80;99.90;;;;;;4959506;29;19911;-90
2022/02/26 05:32:43;;;;;;;;;;;4.60;99.90;;;;;;4958803;29;19910;-91
2022/02/26 05:35:09;;;;;;;;;;;4.60;99.90;;;;;;4941393;29;19910;-91
2022/02/26 05:37:37;;;;;;;;;;;4.60;99.90;;;;;;4947979;29;19914;-92
2022/02/26 05:40:03;;;;;;;;;;;4.70;99.90;;;;;;4950420;29;19927;-93
2022/02/26 05:42:29;;;;;;;;;;;4.70;99.90;;;;;;4942717;28;19951;-92
2022/02/26 05:44:54;;;;;;;;;;;4.70;99.90;;;;;;4964317;29;19910;-92
2022/02/26 05:47:20;;;;;;;;;;;4.70;99.90;;;;;;4949311;29;19962;-93
2022/02/26 05:49:45;;;;;;;;;;;4.70;99.90;;;;;;4943266;29;19970;-92
2022/02/26 05:52:11;;;;;;;;;;;4.70;99.90;;;;;;4961749;29;19894;-92
2022/02/26 05:54:37;;;;;;;;;;;4.50;99.90;;;;;;4965314;29;19914;-92
2022/02/26 05:57:03;;;;;;;;;;;4.50;99.90;;;;;;4948870;29;19922;-93
2022/02/26 05:59:31;;;;;;;;;;;4.40;99.90;;;;;;4960071;29;19910;-92
2022/02/26 06:01:56;;;;;;;;;;;4.40;99.90;;;;;;4946299;29;19927;-91
2022/02/26 06:04:22;;;;;;;;;;;4.40;99.90;;;;;;4944515;28;20335;-92
2022/02/26 06:06:47;;;;;;;;;;;4.40;99.90;;;;;;4946805;29;20138;-91
2022/02/26 06:09:13;;;;;;;;;;;4.40;99.90;;;;;;4969710;28;19997;-91
2022/02/26 06:11:43;;;;;;;;;;;4.40;99.90;;;;;;4967050;28;20167;-92
2022/02/26 06:14:08;;;;;;;;;;;4.40;99.90;;;;;;4971302;29;19931;-92
2022/02/26 06:16:34;;;;;;;;;;;4.30;99.90;;;;;;4952312;29;20095;-92
2022/02/26 06:19:00;;;;;;;;;;;4.30;99.90;;;;;;4953075;28;19903;-91
2022/02/26 06:21:26;;;;;;;;;;;4.30;99.90;;;;;;4952790;29;19914;-91
2022/02/26 06:23:51;;;;;;;;;;;4.30;99.90;;;;;;4951611;29;19906;-91
2022/02/26 06:26:17;;;;;;;;;;;4.20;99.90;;;;;;4968291;29;19938;-89
2022/02/26 06:28:42;;;;;;;;;;;4.20;99.90;;;;;;4941454;29;19990;-90
2022/02/26 06:31:08;;;;;;;;;;;4.10;99.90;;;;;;4956259;29;20293;-91
2022/02/26 06:33:34;;;;;;;;;;;4.10;99.90;;;;;;4958974;29;20001;-90
2022/02/26 06:35:59;;;;;;;;;;;4.10;99.90;;;;;;4963605;29;19907;-89
2022/02/26 06:38:25;;;;;;;;;;;4.10;99.90;;;;;;4947997;29;20142;-90
2022/02/26 06:40:50;;;;;;;;;;;4.10;99.90;;;;;;4947225;29;19950;-91
2022/02/26 06:43:16;;;;;;;;;;;4.10;99.90;;;;;;4965917;29;19915;-90
2022/02/26 06:45:42;;;;;;;;;;;4.10;99.90;;;;;;4950730;28;20032;-90
2022/02/26 06:48:08;;;;;;;;;;;4.10;99.90;;;;;;4965862;29;19915;-90
2022/02/26 06:50:33;;;;;;;;;;;4.00;99.90;;;;;;4965485;29;20092;-90
2022/02/26 06:52:59;;;;;;;;;;;4.00;99.90;;;;;;4948842;29;19906;-90
2022/02/26 06:55:24;;;;;;;;;;;3.90;99.90;;;;;;4948389;29;19907;-90
2022/02/26 06:57:50;;;;;;;;;;;3.90;99.90;;;;;;4947673;29;20107;-90
2022/02/26 07:00:16;;;;;;;;;;;3.90;99.90;;;;;;4965289;29;19922;-90
2022/02/26 07:02:42;;;;;;;;;;;4.00;99.90;;;;;;4948142;29;19913;-90
2022/02/26 07:05:07;;;;;;;;;;;4.00;99.90;;;;;;4949162;29;19941;-89
2022/02/26 07:07:34;;;;;;;;;;;4.00;99.90;;;;;;4965662;29;19953;-91
2022/02/26 07:10:00;;;;;;;;;;;4.00;99.90;;;;;;4965561;29;19919;-90
2022/02/26 07:12:26;;;;;;;;;;;3.90;99.90;;;;;;4964972;29;19906;-91
2022/02/26 07:14:51;;;;;;;;;;;3.90;99.90;;;;;;4947717;29;19938;-90
2022/02/26 07:17:17;;;;;;;;;;;4.00;99.90;;;;;;4947790;29;19906;-90
2022/02/26 07:19:43;;;;;;;;;;;4.10;99.90;;;;;;4943891;29;19910;-90
2022/02/26 07:22:08;;;;;;;;;;;4.20;99.90;;;;;;4955770;28;19917;-92
2022/02/26 07:24:38;;;;;;;;;;;4.20;99.90;;;;;;4957125;28;19906;-94
2022/02/26 07:34:51;;;;;;;;;;;4.50;99.90;;;;;;4960699;23;19953;-96
2022/02/26 11:15:03;;;;;;;;;;;11.30;98.90;;;;;;5702176;23;19953;-91
2022/02/26 11:51:14;;;;;;;;;;;12.40;95.40;;;;;;5634588;23;19926;-90
2022/02/26 11:53:44;;;;;;;;;;;12.40;94.60;;;;;;4945714;29;19922;-91
2022/02/26 11:56:15;;;;;;;;;;;12.40;95.90;;;;;;4953938;28;19946;-92
2022/02/26 11:58:43;;;;;;;;;;;12.40;93.30;;;;;;4940572;28;20005;-91
2022/02/26 12:01:16;;;;;;;;;;;12.40;93.80;;;;;;4950082;28;19914;-91
2022/02/26 12:03:41;;;;;;;;;;;12.50;94.80;;;;;;4955437;28;19914;-92
2022/02/26 12:14:41;;;;;;;;;;;13.00;91.60;;;;;;5149047;23;19917;-95
2022/02/26 12:17:11;;;;;;;;;;;13.10;91.60;;;;;;4963481;28;20004;-96
2022/02/26 12:20:09;;;;;;;;;;;13.20;91.70;;;;;;4976827;28;19918;-96
2022/02/26 12:26:11;;;;;;;;;;;;;;;;;;;;;
2022/02/26 12:28:48;;;;;;;;;;;13.30;90.40;;;;;;4982500;28;19982;-95
2022/02/26 12:31:26;;;;;;;;;;;13.30;90.90;;;;;;4982153;28;19911;-94
2022/02/26 12:34:17;;;;;;;;;;;13.40;92.20;;;;;;4971964;28;19922;-96
2022/02/26 12:37:04;;;;;;;;;;;13.30;91.70;;;;;;4975419;28;19964;-95
2022/02/26 12:39:56;;;;;;;;;;;13.20;92.80;;;;;;4952125;28;20371;-95
2022/02/26 12:42:36;;;;;;;;;;;;;;;;;;;;;
2022/02/26 12:45:16;;;;;;;;;;;;;;;;;;;;;
2022/02/26 12:47:54;;;;;;;;;;;13.80;91.90;;;;;;4977167;28;19997;-94
2022/02/26 12:50:31;;;;;;;;;;;13.80;89.80;;;;;;4973753;28;19918;-94
2022/02/26 12:53:16;;;;;;;;;;;13.80;90.30;;;;;;4976718;28;20417;-93
2022/02/26 12:56:02;;;;;;;;;;;13.80;91.30;;;;;;4955122;28;20392;-94
2022/02/26 12:58:40;;;;;;;;;;;14.00;90.30;;;;;;4949950;28;19910;-96
2022/02/26 13:01:08;;;;;;;;;;;14.00;88.60;;;;;;4958539;28;19917;-93
2022/02/26 13:03:44;;;;;;;;;;;14.00;91.50;;;;;;4975985;28;20013;-95
2022/02/26 13:06:26;;;;;;;;;;;14.20;87.90;;;;;;4976280;28;19973;-95
2022/02/26 13:08:54;;;;;;;;;;;14.20;87.10;;;;;;4956833;28;19925;-96
2022/02/26 13:11:23;;;;;;;;;;;14.30;85.70;;;;;;4954068;29;19953;-95
2022/02/26 13:14:05;;;;;;;;;;;14.30;78.60;;;;;;4973594;28;19925;-96
2022/02/26 13:16:33;;;;;;;;;;;14.40;78.00;;;;;;4973213;28;19911;-95
2022/02/26 13:19:19;;;;;;;;;;;14.50;78.30;;;;;;4974681;28;19914;-95
2022/02/26 13:21:45;;;;;;;;;;;14.60;77.20;;;;;;4978072;28;19914;-94
2022/02/26 13:24:24;;;;;;;;;;;14.70;75.30;;;;;;4977009;28;19917;-95
2022/02/26 13:27:07;;;;;;;;;;;14.80;76.70;;;;;;4977106;28;19910;-94
2022/02/26 13:29:59;;;;;;;;;;;14.80;75.30;;;;;;4977313;28;20402;-95
2022/02/26 13:32:27;;;;;;;;;;;14.80;78.30;;;;;;4956300;28;19910;-96
2022/02/26 13:35:22;;;;;;;;;;;14.90;74.90;;;;;;4979246;28;19918;-95
2022/02/26 13:37:51;;;;;;;;;;;14.90;76.20;;;;;;4917422;29;19915;-94
2022/02/26 13:40:30;;;;;;;;;;;14.90;75.30;;;;;;4903960;29;19915;-96
2022/02/26 13:43:13;;;;;;;;;;;14.90;72.00;;;;;;4908618;29;19983;-93
2022/02/26 13:45:54;;;;;;;;;;;14.90;74.50;;;;;;4920930;29;20352;-94
2022/02/26 13:48:22;;;;;;;;;;;15.00;75.40;;;;;;4932524;29;19955;-94
2022/02/26 13:50:55;;;;;;;;;;;15.10;73.40;;;;;;4919680;29;19953;-94
2022/02/26 13:53:37;;;;;;;;;;;15.00;76.40;;;;;;4915941;29;19944;-96
2022/02/26 13:56:09;;;;;;;;;;;15.00;78.30;;;;;;4957582;28;19910;-96
2022/02/26 13:58:50;;;;;;;;;;;;;;;;;;;;;
2022/02/26 14:01:17;;;;;;;;;;;15.00;75.00;;;;;;4988265;28;19953;-96
2022/02/26 14:06:40;;;;;;;;;;;15.10;74.80;;;;;;4996490;28;19910;-94
2022/02/26 14:09:21;;;;;;;;;;;15.30;78.50;;;;;;4993885;28;19918;-94
2022/02/26 14:12:16;;;;;;;;;;;15.20;73.40;;;;;;4987937;28;19910;-94
2022/02/26 14:14:42;;;;;;;;;;;15.30;72.20;;;;;;4962847;28;19910;-93
2022/02/26 14:17:13;;;;;;;;;;;15.30;74.80;;;;;;4974408;28;19915;-94
2022/02/26 14:20:03;;;;;;;;;;;15.40;73.40;;;;;;4975124;28;19937;-94
2022/02/26 14:22:53;;;;;;;;;;;15.30;71.30;;;;;;4992681;28;19914;-94
2022/02/26 14:25:30;;;;;;;;;;;15.30;70.50;;;;;;4992883;28;19991;-94
2022/02/26 14:27:55;;;;;;;;;;;15.30;73.40;;;;;;4987552;28;19977;-89
2022/02/26 14:30:22;;;;;;;;;;;15.50;74.90;;;;;;4974113;28;19909;-90
2022/02/26 14:32:49;;;;;;;;;;;15.60;79.90;;;;;;4992561;28;20004;-89
2022/02/26 14:35:15;;;;;;;;;;;15.60;77.40;;;;;;4993843;28;20002;-90
2022/02/26 14:37:41;;;;;;;;;;;15.70;76.10;;;;;;4991217;28;19911;-89
2022/02/26 14:40:10;;;;;;;;;;;15.60;77.20;;;;;;4990229;28;19910;-90
2022/02/26 14:42:36;;;;;;;;;;;15.80;77.10;;;;;;4969685;28;20403;-88
2022/02/26 14:45:03;;;;;;;;;;;15.90;72.60;;;;;;4977295;28;19972;-89
2022/02/26 14:47:28;;;;;;;;;;;15.70;72.20;;;;;;4974850;28;19932;-94
2022/02/26 14:56:58;;;;;;;;;;;15.80;71.00;;;;;;4910880;28;19914;-95
2022/02/26 14:59:49;;;;;;;;;;;15.90;70.20;;;;;;4954153;28;19925;-96
2022/02/26 15:09:14;;;;;;;;;;;16.00;68.80;;;;;;4908267;29;20280;-95
2022/02/26 15:11:53;;;;;;;;;;;;;;;;;;;;;
2022/02/26 15:17:44;;;;;;;;;;;;;;;;;;;;;
2022/02/26 15:23:43;;;;;;;;;;;16.30;67.70;;;;;;4883251;29;19912;-95
2022/02/26 15:36:08;;;;;;;;;;;16.80;65.20;;;;;;4933319;29;19915;-95
2022/02/26 15:45:11;;;;;;;;;;;;;;;;;;;;;
2022/02/26 15:48:13;;;;;;;;;;;;;;;;;;;;;
2022/02/26 15:50:53;;;;;;;;;;;;;;;;;;;;;
2022/02/26 15:53:19;;;;;;;;;;;20.70;56.00;;;;;;4933620;29;19910;-96
2022/02/26 15:56:55;;;;;;;;;;;22.20;54.00;;;;;;4916712;29;20376;-96
2022/02/26 16:02:27;;;;;;;;;;;24.60;48.70;;;;;;4922679;29;19911;-96
2022/02/26 16:04:58;;;;;;;;;;;26.20;45.40;;;;;;4919810;28;19911;-95
2022/02/26 16:07:48;;;;;;;;;;;27.30;43.20;;;;;;4956719;28;20005;-96
2022/02/26 16:10:34;;;;;;;;;;;27.30;41.50;;;;;;4956750;28;19965;-95
2022/02/26 16:13:00;;;;;;;;;;;30.10;39.40;;;;;;4972001;28;19917;-95
2022/02/26 16:15:26;;;;;;;;;;;30.40;37.90;;;;;;4972651;28;19922;-96
2022/02/26 16:17:52;;;;;;;;;;;30.00;36.60;;;;;;4981403;28;20516;-96
2022/02/26 16:20:18;;;;;;;;;;;30.00;36.20;;;;;;4978300;28;19965;-94
2022/02/26 16:22:46;;;;;;;;;;;30.80;35.80;;;;;;4975601;28;19910;-96
2022/02/26 16:25:14;;;;;;;;;;;30.70;35.90;;;;;;4972421;28;19910;-96
2022/02/26 16:27:40;;;;;;;;;;;31.50;35.40;;;;;;4972297;28;20593;-96
2022/02/26 16:30:06;;;;;;;;;;;30.80;35.10;;;;;;4972081;28;20009;-95
2022/02/26 16:32:35;;;;;;;;;;;30.40;34.50;;;;;;4971917;28;19917;-95
2022/02/26 16:35:17;;;;;;;;;;;30.40;34.30;;;;;;4973022;28;19937;-94
2022/02/26 16:37:43;;;;;;;;;;;30.30;34.50;;;;;;4972223;28;20363;-94
2022/02/26 16:40:09;;;;;;;;;;;29.80;33.90;;;;;;4971834;28;19910;-94
2022/02/26 16:42:37;;;;;;;;;;;28.00;34.40;;;;;;4971290;28;19922;-94
2022/02/26 16:45:03;;;;;;;;;;;25.00;36.00;;;;;;4971715;28;19966;-94
2022/02/26 16:47:29;;;;;;;;;;;22.80;38.80;;;;;;4972760;28;20021;-93
2022/02/26 16:49:55;;;;;;;;;;;20.40;41.80;;;;;;4971567;28;19990;-94
2022/02/26 16:52:21;;;;;;;;;;;18.50;43.80;;;;;;4971612;28;19910;-94
2022/02/26 16:54:47;;;;;;;;;;;17.20;46.90;;;;;;4971556;28;19937;-94
2022/02/26 16:57:13;;;;;;;;;;;16.10;49.50;;;;;;4975403;28;20008;-93
2022/02/26 16:59:38;;;;;;;;;;;15.40;52.80;;;;;;4975540;28;20016;-94
2022/02/26 17:02:04;;;;;;;;;;;14.80;53.20;;;;;;4976863;28;19914;-94
2022/02/26 17:04:30;;;;;;;;;;;14.30;56.20;;;;;;4975472;28;19957;-94
2022/02/26 17:06:56;;;;;;;;;;;14.00;58.10;;;;;;4976777;28;19910;-94
2022/02/26 17:09:21;;;;;;;;;;;13.70;59.80;;;;;;4974587;28;19922;-93
2022/02/26 17:11:47;;;;;;;;;;;13.40;63.70;;;;;;4949464;28;19911;-94
2022/02/26 17:14:13;;;;;;;;;;;13.30;65.00;;;;;;4975228;28;19922;-95
2022/02/26 17:16:38;;;;;;;;;;;13.10;64.30;;;;;;4975341;28;20295;-94
2022/02/26 17:19:04;;;;;;;;;;;12.90;68.00;;;;;;4976679;28;19952;-94
2022/02/26 17:21:30;;;;;;;;;;;12.70;69.10;;;;;;4975998;28;19964;-94
2022/02/26 17:23:56;;;;;;;;;;;12.60;71.40;;;;;;4978450;28;19914;-94
2022/02/26 17:26:21;;;;;;;;;;;12.40;74.40;;;;;;4963382;28;19917;-94
2022/02/26 17:28:47;;;;;;;;;;;12.20;75.20;;;;;;4977955;28;19953;-94
2022/02/26 17:31:14;;;;;;;;;;;12.10;78.10;;;;;;4975166;28;19918;-92
2022/02/26 17:33:39;;;;;;;;;;;12.00;79.80;;;;;;4976109;28;19910;-93
2022/02/26 17:36:06;;;;;;;;;;;11.90;80.50;;;;;;4978884;28;19921;-93
2022/02/26 17:38:33;;;;;;;;;;;11.80;80.90;;;;;;4978876;28;20391;-95
2022/02/26 17:40:58;;;;;;;;;;;11.70;80.20;;;;;;4975081;28;20279;-93
2022/02/26 17:43:24;;;;;;;;;;;11.60;84.30;;;;;;4975261;28;19910;-94
2022/02/26 17:45:50;;;;;;;;;;;11.60;84.40;;;;;;4975399;28;19910;-94
2022/02/26 17:48:15;;;;;;;;;;;11.50;85.50;;;;;;4974558;28;20328;-95
2022/02/26 17:50:41;;;;;;;;;;;11.40;87.80;;;;;;4975367;28;19925;-94
2022/02/26 17:53:07;;;;;;;;;;;11.30;87.40;;;;;;4975510;28;19910;-95
2022/02/26 17:55:33;;;;;;;;;;;11.20;87.00;;;;;;4975988;28;19917;-93
2022/02/26 17:57:59;;;;;;;;;;;11.10;87.90;;;;;;4976732;28;19910;-94
2022/02/26 18:00:24;;;;;;;;;;;11.10;89.30;;;;;;4975841;28;19919;-93
2022/02/26 18:02:51;;;;;;;;;;;11.00;88.50;;;;;;4980244;28;19917;-93
2022/02/26 18:05:16;;;;;;;;;;;10.90;90.50;;;;;;4975756;28;19993;-93
2022/02/26 18:07:42;;;;;;;;;;;10.80;92.00;;;;;;4973555;28;20348;-92
2022/02/26 18:10:08;;;;;;;;;;;10.70;92.60;;;;;;4974567;28;19926;-93
2022/02/26 18:12:34;;;;;;;;;;;10.60;90.70;;;;;;4974190;28;20326;-95
2022/02/26 18:15:00;;;;;;;;;;;10.60;91.00;;;;;;4974261;28;19923;-93
2022/02/26 18:17:26;;;;;;;;;;;10.60;91.60;;;;;;4974613;28;19910;-94
2022/02/26 18:19:51;;;;;;;;;;;10.40;92.60;;;;;;4974962;28;19914;-94
2022/02/26 18:22:17;;;;;;;;;;;10.40;92.00;;;;;;4975943;28;19914;-91
2022/02/26 18:24:42;;;;;;;;;;;10.30;92.60;;;;;;4975718;28;20438;-91
2022/02/26 18:27:08;;;;;;;;;;;10.20;94.30;;;;;;4972287;28;19910;-91
2022/02/26 18:29:34;;;;;;;;;;;10.10;93.10;;;;;;4976373;28;20104;-91
2022/02/26 18:31:59;;;;;;;;;;;10.00;93.30;;;;;;4974948;28;19911;-91
2022/02/26 18:34:25;;;;;;;;;;;10.00;94.10;;;;;;4975928;28;20057;-92
2022/02/26 18:36:51;;;;;;;;;;;10.00;93.00;;;;;;4974597;28;20402;-92
2022/02/26 18:39:18;;;;;;;;;;;10.00;94.00;;;;;;4973674;28;20005;-92
2022/02/26 18:41:44;;;;;;;;;;;9.90;93.70;;;;;;4974931;28;20386;-90
2022/02/26 18:44:10;;;;;;;;;;;9.90;93.30;;;;;;4975248;28;19911;-91
2022/02/26 18:46:36;;;;;;;;;;;9.90;94.20;;;;;;4974254;28;20021;-90
2022/02/26 18:49:02;;;;;;;;;;;9.90;93.90;;;;;;4980604;28;19918;-90
2022/02/26 18:51:28;;;;;;;;;;;9.80;93.50;;;;;;4974936;28;20483;-92
2022/02/26 18:53:53;;;;;;;;;;;9.80;93.50;;;;;;4975979;28;20141;-92
2022/02/26 18:56:19;;;;;;;;;;;9.90;93.20;;;;;;4976942;28;19910;-91
2022/02/26 18:58:45;;;;;;;;;;;9.80;93.60;;;;;;4975164;28;19910;-92
2022/02/26 19:01:13;;;;;;;;;;;9.80;93.90;;;;;;4974431;28;20001;-91
2022/02/26 19:03:39;;;;;;;;;;;9.80;94.80;;;;;;4974130;28;20286;-91
2022/02/26 19:06:04;;;;;;;;;;;9.70;93.70;;;;;;4974858;28;20001;-90
2022/02/26 19:08:30;;;;;;;;;;;9.70;92.90;;;;;;4976960;28;19925;-91
2022/02/26 19:10:55;;;;;;;;;;;9.70;93.60;;;;;;4974679;28;19910;-91
2022/02/26 19:13:22;;;;;;;;;;;9.70;93.80;;;;;;4983387;28;19911;-90
2022/02/26 19:15:50;;;;;;;;;;;9.60;93.40;;;;;;4974758;28;19933;-90
2022/02/26 19:18:17;;;;;;;;;;;9.60;93.10;;;;;;4973580;28;19972;-91
2022/02/26 19:20:43;;;;;;;;;;;9.50;93.70;;;;;;4973607;28;20284;-90
2022/02/26 19:23:08;;;;;;;;;;;9.50;92.30;;;;;;4975063;28;19961;-92
2022/02/26 19:25:34;;;;;;;;;;;9.40;92.80;;;;;;4975329;28;19910;-91
2022/02/26 19:28:00;;;;;;;;;;;9.40;93.10;;;;;;4976754;28;20487;-91
2022/02/26 19:30:25;;;;;;;;;;;9.30;93.10;;;;;;4973290;28;19918;-92
2022/02/26 19:32:51;;;;;;;;;;;9.30;93.00;;;;;;4968456;28;19917;-93
2022/02/26 19:35:17;;;;;;;;;;;9.30;92.90;;;;;;4973478;28;19997;-92
2022/02/26 19:37:42;;;;;;;;;;;9.30;93.90;;;;;;4973220;28;19910;-90
2022/02/26 19:40:08;;;;;;;;;;;9.30;93.10;;;;;;4977023;28;19953;-89
2022/02/26 19:42:34;;;;;;;;;;;9.20;93.00;;;;;;4972400;28;19961;-90
2022/02/26 19:45:01;;;;;;;;;;;9.20;93.80;;;;;;4972288;28;19993;-90
2022/02/26 19:47:27;;;;;;;;;;;9.20;93.70;;;;;;4972222;28;19917;-90
2022/02/26 19:49:53;;;;;;;;;;;9.10;94.90;;;;;;4973378;28;19964;-90
2022/02/26 19:52:19;;;;;;;;;;;9.10;94.60;;;;;;4973137;28;19910;-90
2022/02/26 19:54:45;;;;;;;;;;;9.10;95.00;;;;;;4971648;28;19910;-90